Time;durP1;ratioP1;P1;durP2;ratioP2;P2;SDS_P1;SDS_P2;PMS_P1;PMS_P2;Temp;Humidity;BMP_temperature;BMP_pressure;BME280_temperature;BME280_humidity;BME280_pressure;Samples;Min_cycle;Max_cycle;Signal;HPM_P1;HPM_P2
2021/05/03 00:02:06;;;;;;;6.43;4.67;;;7.10;99.90;;;;;;5095827;28;20235;-63
2021/05/03 00:04:33;;;;;;;5.07;3.80;;;7.10;99.90;;;;;;5095714;28;20204;-63
2021/05/03 00:06:59;;;;;;;6.10;4.30;;;7.10;99.90;;;;;;5096133;28;20214;-62
2021/05/03 00:09:26;;;;;;;4.77;4.30;;;7.20;99.90;;;;;;5095443;28;20699;-63
2021/05/03 00:11:52;;;;;;;5.13;4.07;;;7.20;99.90;;;;;;5095467;28;20232;-63
2021/05/03 00:14:19;;;;;;;4.93;4.00;;;7.20;99.90;;;;;;5095509;28;20215;-63
2021/05/03 00:16:45;;;;;;;4.93;3.73;;;7.10;99.90;;;;;;5095062;28;20215;-62
2021/05/03 00:19:11;;;;;;;6.30;3.90;;;7.20;99.90;;;;;;5094325;28;20219;-63
2021/05/03 00:21:37;;;;;;;6.17;4.93;;;7.20;99.90;;;;;;5094502;28;20242;-63
2021/05/03 00:24:04;;;;;;;4.80;4.27;;;7.20;99.90;;;;;;5096380;28;20204;-63
2021/05/03 00:26:31;;;;;;;4.93;3.97;;;7.10;99.90;;;;;;5094816;28;20200;-63
2021/05/03 00:28:58;;;;;;;5.57;4.20;;;6.90;99.90;;;;;;5098833;28;20212;-63
2021/05/03 00:31:24;;;;;;;5.87;4.20;;;6.80;99.90;;;;;;5095893;28;20289;-63
2021/05/03 00:33:50;;;;;;;7.80;5.17;;;6.70;99.90;;;;;;5093973;28;20664;-63
2021/05/03 00:36:16;;;;;;;4.63;4.10;;;6.50;99.90;;;;;;5094373;28;20208;-63
2021/05/03 00:38:42;;;;;;;4.73;4.20;;;6.50;99.90;;;;;;5097135;28;20215;-62
2021/05/03 00:41:09;;;;;;;4.87;3.97;;;6.40;99.90;;;;;;5093836;28;20707;-63
2021/05/03 00:43:36;;;;;;;7.83;4.43;;;6.40;99.90;;;;;;5093787;28;20208;-63
2021/05/03 00:46:02;;;;;;;8.33;5.17;;;6.40;99.90;;;;;;5093758;28;20216;-63
2021/05/03 00:48:28;;;;;;;10.57;4.63;;;6.30;99.90;;;;;;5093581;28;20671;-63
2021/05/03 00:50:55;;;;;;;4.53;4.10;;;6.30;99.90;;;;;;5093966;28;20251;-63
2021/05/03 00:53:21;;;;;;;5.50;3.77;;;6.20;99.90;;;;;;5093754;28;20215;-63
2021/05/03 00:55:47;;;;;;;6.33;4.40;;;6.20;99.90;;;;;;5093670;28;20204;-63
2021/05/03 00:58:14;;;;;;;5.37;3.97;;;6.20;99.90;;;;;;5093573;28;20204;-63
2021/05/03 01:00:41;;;;;;;5.53;4.03;;;6.20;99.90;;;;;;5093575;28;20227;-63
2021/05/03 01:03:07;;;;;;;5.77;4.40;;;6.20;99.90;;;;;;5093135;28;20622;-63
2021/05/03 01:05:34;;;;;;;4.53;4.13;;;6.20;99.90;;;;;;5093415;28;20200;-63
2021/05/03 01:08:02;;;;;;;5.87;4.00;;;6.20;99.90;;;;;;5093319;28;20277;-62
2021/05/03 01:10:29;;;;;;;5.00;4.00;;;6.20;99.90;;;;;;5093451;28;20255;-63
2021/05/03 01:12:56;;;;;;;7.77;3.83;;;6.30;99.90;;;;;;5093194;28;20690;-63
2021/05/03 01:15:24;;;;;;;9.67;4.70;;;6.30;99.90;;;;;;5093281;28;20215;-62
2021/05/03 01:17:56;;;;;;;6.93;4.60;;;6.40;99.90;;;;;;5093300;28;20220;-62
2021/05/03 01:20:24;;;;;;;4.20;3.80;;;6.40;99.90;;;;;;5093009;28;20232;-62
2021/05/03 01:22:55;;;;;;;4.47;3.87;;;6.40;99.90;;;;;;5097056;28;20249;-62
2021/05/03 01:25:21;;;;;;;8.43;4.23;;;6.40;99.90;;;;;;5098027;28;20208;-62
2021/05/03 01:27:48;;;;;;;4.63;3.77;;;6.30;99.90;;;;;;5097756;28;20318;-62
2021/05/03 01:30:15;;;;;;;6.33;4.00;;;6.40;99.90;;;;;;5096068;28;20232;-62
2021/05/03 01:32:41;;;;;;;7.03;4.03;;;6.40;99.90;;;;;;5093240;28;20687;-62
2021/05/03 01:35:09;;;;;;;5.63;3.73;;;6.50;99.90;;;;;;5093248;28;20204;-62
2021/05/03 01:37:35;;;;;;;8.40;3.97;;;6.40;99.90;;;;;;5093022;28;20584;-62
2021/05/03 01:40:04;;;;;;;4.83;4.07;;;6.30;99.90;;;;;;5093075;28;20207;-62
2021/05/03 01:42:30;;;;;;;6.20;4.30;;;6.10;99.90;;;;;;5093286;28;20200;-64
2021/05/03 01:44:59;;;;;;;7.00;4.10;;;6.00;99.90;;;;;;5093152;28;20215;-62
2021/05/03 01:47:26;;;;;;;4.93;4.03;;;5.90;99.90;;;;;;5093330;28;20208;-62
2021/05/03 01:49:52;;;;;;;4.77;4.13;;;5.80;99.90;;;;;;5093000;28;20231;-62
2021/05/03 01:52:18;;;;;;;5.20;4.63;;;5.70;99.90;;;;;;5093470;28;20208;-63
2021/05/03 01:54:45;;;;;;;5.80;4.40;;;5.60;99.90;;;;;;5092562;28;20205;-62
2021/05/03 01:57:12;;;;;;;6.00;4.30;;;5.60;99.90;;;;;;5092985;28;20211;-62
2021/05/03 01:59:39;;;;;;;4.87;4.00;;;5.70;99.90;;;;;;5093379;28;20208;-62
2021/05/03 02:02:06;;;;;;;4.80;4.30;;;5.70;99.90;;;;;;5093421;28;20228;-62
2021/05/03 02:04:32;;;;;;;4.30;3.90;;;5.70;99.90;;;;;;5093765;28;20554;-62
2021/05/03 02:06:58;;;;;;;6.23;4.97;;;5.60;99.90;;;;;;5093067;28;20200;-62
2021/05/03 02:09:24;;;;;;;6.27;4.23;;;5.70;99.90;;;;;;5093111;28;20212;-62
2021/05/03 02:11:50;;;;;;;7.10;4.13;;;5.60;99.90;;;;;;5092115;28;20244;-63
2021/05/03 02:14:18;;;;;;;4.70;4.10;;;5.60;99.90;;;;;;5091740;28;20668;-62
2021/05/03 02:16:44;;;;;;;4.97;4.47;;;5.50;99.90;;;;;;5092285;28;20208;-62
2021/05/03 02:19:10;;;;;;;5.00;4.43;;;5.40;99.90;;;;;;5091532;28;20434;-63
2021/05/03 02:21:36;;;;;;;5.93;4.67;;;5.20;99.90;;;;;;5091724;28;20232;-63
2021/05/03 02:24:03;;;;;;;5.97;5.00;;;5.10;99.90;;;;;;5091363;28;20684;-63
2021/05/03 02:26:30;;;;;;;6.50;5.03;;;5.20;99.90;;;;;;5091946;28;20215;-63
2021/05/03 02:28:56;;;;;;;7.67;5.07;;;5.10;99.90;;;;;;5091847;28;20227;-62
2021/05/03 02:31:23;;;;;;;7.57;6.00;;;5.00;99.90;;;;;;5091562;28;20231;-63
2021/05/03 02:33:49;;;;;;;7.73;4.90;;;5.10;99.90;;;;;;5091462;28;20204;-62
2021/05/03 02:36:15;;;;;;;5.37;4.87;;;5.00;99.90;;;;;;5091373;28;20210;-62
2021/05/03 02:38:42;;;;;;;5.23;4.73;;;5.00;99.90;;;;;;5091224;28;20235;-63
2021/05/03 02:41:08;;;;;;;9.53;5.47;;;5.10;99.90;;;;;;5091432;28;20691;-63
2021/05/03 02:43:34;;;;;;;6.53;5.43;;;5.10;99.90;;;;;;5091465;28;20204;-62
2021/05/03 02:46:01;;;;;;;5.50;4.90;;;5.10;99.90;;;;;;5091647;28;20200;-63
2021/05/03 02:48:28;;;;;;;5.50;4.90;;;5.20;99.90;;;;;;5091345;28;20204;-63
2021/05/03 02:50:54;;;;;;;6.57;5.07;;;5.20;99.90;;;;;;5091182;28;20232;-63
2021/05/03 02:53:20;;;;;;;5.93;5.33;;;5.20;99.90;;;;;;5091517;28;20215;-63
2021/05/03 02:55:46;;;;;;;6.67;5.77;;;5.20;99.90;;;;;;5091239;28;20208;-62
2021/05/03 02:58:13;;;;;;;7.50;5.83;;;5.20;99.90;;;;;;5090993;28;20208;-63
2021/05/03 03:00:39;;;;;;;6.10;5.03;;;5.20;99.90;;;;;;5091218;28;20228;-63
2021/05/03 03:03:05;;;;;;;5.60;4.60;;;5.20;99.90;;;;;;5091263;28;20208;-63
2021/05/03 03:05:33;;;;;;;6.20;4.90;;;5.10;99.90;;;;;;5091212;28;20220;-63
2021/05/03 03:08:01;;;;;;;7.23;5.13;;;5.00;99.90;;;;;;5090751;28;20200;-63
2021/05/03 03:10:29;;;;;;;7.40;5.70;;;5.00;99.90;;;;;;5091084;28;20625;-63
2021/05/03 03:12:55;;;;;;;6.27;5.57;;;5.00;99.90;;;;;;5091458;28;20207;-62
2021/05/03 03:15:23;;;;;;;8.70;5.53;;;5.10;99.90;;;;;;5090872;28;20204;-63
2021/05/03 03:17:50;;;;;;;12.37;7.53;;;5.10;99.90;;;;;;5091025;28;20200;-62
2021/05/03 03:20:18;;;;;;;10.00;6.57;;;5.10;99.90;;;;;;5091310;28;20232;-60
2021/05/03 03:22:45;;;;;;;10.60;6.37;;;5.10;99.90;;;;;;5091388;28;20200;-61
2021/05/03 03:25:13;;;;;;;8.00;6.13;;;5.10;99.90;;;;;;5090872;28;20208;-59
2021/05/03 03:27:39;;;;;;;7.50;5.90;;;5.00;99.90;;;;;;5090679;28;20207;-60
2021/05/03 03:30:07;;;;;;;6.17;5.57;;;5.00;99.90;;;;;;5090784;28;20246;-59
2021/05/03 03:32:34;;;;;;;6.43;5.43;;;5.20;99.90;;;;;;5094876;28;20204;-59
2021/05/03 03:35:01;;;;;;;7.23;5.90;;;5.00;99.90;;;;;;5094692;28;20303;-62
2021/05/03 03:37:27;;;;;;;6.40;5.77;;;5.00;99.90;;;;;;5095143;28;20257;-60
2021/05/03 03:39:54;;;;;;;8.33;5.67;;;4.90;99.90;;;;;;5094625;28;20595;-60
2021/05/03 03:42:20;;;;;;;6.00;5.40;;;4.90;99.90;;;;;;5094529;28;20694;-59
2021/05/03 03:44:46;;;;;;;5.87;5.27;;;4.80;99.90;;;;;;5094665;28;20201;-59
2021/05/03 03:47:13;;;;;;;6.83;5.63;;;4.60;99.90;;;;;;5094855;28;20212;-59
2021/05/03 03:49:39;;;;;;;9.67;6.30;;;4.50;99.90;;;;;;5094365;28;20507;-59
2021/05/03 03:52:05;;;;;;;7.37;6.20;;;4.40;99.90;;;;;;5094742;28;20224;-58
2021/05/03 03:54:31;;;;;;;7.33;6.53;;;4.40;99.90;;;;;;5094620;28;20274;-61
2021/05/03 03:56:58;;;;;;;7.33;5.83;;;4.40;99.90;;;;;;5094559;28;20238;-63
2021/05/03 03:59:25;;;;;;;8.37;5.97;;;4.40;99.90;;;;;;5094317;28;20200;-59
2021/05/03 04:01:51;;;;;;;8.30;6.83;;;4.30;99.90;;;;;;5094389;28;20711;-59
2021/05/03 04:04:21;;;;;;;9.07;7.70;;;4.30;99.90;;;;;;5094453;28;20588;-60
2021/05/03 04:06:51;;;;;;;9.33;7.60;;;4.40;99.90;;;;;;5094400;28;20672;-59
2021/05/03 04:09:26;;;;;;;9.97;7.53;;;4.40;99.90;;;;;;5094324;28;20301;-60
2021/05/03 04:23:05;;;;;;;9.27;7.47;;;4.70;99.90;;;;;;5093947;28;20248;-61
2021/05/03 04:25:36;;;;;;;12.63;8.20;;;4.70;99.90;;;;;;5094207;28;20266;-59
2021/05/03 04:28:02;;;;;;;12.37;9.33;;;4.80;99.90;;;;;;5093833;28;20753;-59
2021/05/03 04:30:29;;;;;;;7.63;6.83;;;4.90;99.90;;;;;;5093743;28;20231;-59
2021/05/03 04:32:56;;;;;;;14.73;9.83;;;5.00;99.90;;;;;;5093716;28;20213;-59
2021/05/03 04:35:22;;;;;;;22.20;16.13;;;5.10;99.90;;;;;;5094200;28;20208;-60
2021/05/03 04:37:49;;;;;;;10.87;7.83;;;5.20;99.90;;;;;;5093698;28;20212;-60
2021/05/03 04:40:15;;;;;;;7.20;6.37;;;5.30;99.90;;;;;;5093639;28;20216;-61
2021/05/03 04:42:42;;;;;;;7.30;5.77;;;5.50;99.90;;;;;;5092906;28;20204;-63
2021/05/03 04:45:11;;;;;;;9.93;5.87;;;5.70;99.90;;;;;;5093477;28;20203;-61
2021/05/03 04:47:38;;;;;;;7.70;6.87;;;5.90;99.90;;;;;;5093498;28;20208;-61
2021/05/03 04:50:06;;;;;;;16.60;10.53;;;6.00;99.90;;;;;;5093028;28;20703;-61
2021/05/03 04:52:33;;;;;;;7.53;6.17;;;6.10;99.90;;;;;;5093382;28;20231;-63
2021/05/03 04:54:59;;;;;;;9.93;7.43;;;6.20;99.90;;;;;;5093265;28;20265;-61
2021/05/03 04:57:25;;;;;;;9.60;7.37;;;6.20;99.90;;;;;;5093434;28;20211;-60
2021/05/03 04:59:51;;;;;;;10.50;7.80;;;6.40;99.90;;;;;;5093693;28;20209;-60
2021/05/03 05:02:18;;;;;;;11.20;8.00;;;6.60;99.90;;;;;;5093257;28;20650;-61
2021/05/03 05:04:45;;;;;;;13.40;10.80;;;6.90;99.90;;;;;;5093268;28;20212;-61
2021/05/03 05:07:11;;;;;;;9.13;6.90;;;7.20;99.90;;;;;;5093471;28;20200;-61
2021/05/03 05:09:37;;;;;;;11.00;6.43;;;7.40;99.90;;;;;;5093020;28;20675;-61
2021/05/03 05:12:04;;;;;;;7.10;5.63;;;7.70;99.90;;;;;;5093227;28;20224;-62
2021/05/03 05:14:31;;;;;;;9.73;6.90;;;7.80;99.90;;;;;;5093114;28;20617;-61
2021/05/03 05:16:57;;;;;;;7.37;6.03;;;7.80;99.90;;;;;;5092919;28;20211;-63
2021/05/03 05:19:25;;;;;;;11.67;7.00;;;7.60;99.90;;;;;;5092769;28;20207;-62
2021/05/03 05:21:52;;;;;;;11.07;6.93;;;7.40;99.90;;;;;;5092816;28;20228;-60
2021/05/03 05:24:18;;;;;;;11.73;7.67;;;7.20;99.90;;;;;;5093169;28;20257;-61
2021/05/03 05:26:45;;;;;;;10.70;7.23;;;7.10;99.90;;;;;;5093722;28;20207;-61
2021/05/03 05:29:11;;;;;;;11.53;7.13;;;7.10;99.90;;;;;;5093283;28;20204;-60
2021/05/03 05:31:37;;;;;;;10.60;6.90;;;7.10;99.90;;;;;;5093562;28;20274;-60
2021/05/03 05:34:04;;;;;;;10.57;6.90;;;7.70;99.90;;;;;;5093203;28;20208;-62
2021/05/03 05:36:30;;;;;;;8.53;5.97;;;9.50;99.90;;;;;;5093308;28;20208;-62
2021/05/03 05:38:59;;;;;;;10.13;5.50;;;11.70;99.90;;;;;;5092856;28;20241;-61
2021/05/03 05:41:25;;;;;;;6.53;5.50;;;13.60;98.10;;;;;;5092804;28;20408;-60
2021/05/03 05:43:52;;;;;;;8.50;5.13;;;15.50;94.50;;;;;;5092348;28;20212;-63
2021/05/03 05:46:18;;;;;;;7.03;5.30;;;17.00;90.30;;;;;;5092582;28;20200;-63
2021/05/03 05:48:45;;;;;;;6.97;5.40;;;18.60;84.50;;;;;;5092778;28;20200;-63
2021/05/03 05:51:12;;;;;;;6.00;4.87;;;18.80;77.80;;;;;;5092670;28;20232;-63
2021/05/03 05:53:38;;;;;;;6.80;4.80;;;18.10;77.30;;;;;;5091396;28;20214;-64
2021/05/03 05:56:05;;;;;;;8.03;5.63;;;18.40;77.60;;;;;;5092660;28;20208;-63
2021/05/03 05:58:32;;;;;;;7.00;4.80;;;18.60;75.60;;;;;;5092223;28;20249;-62
2021/05/03 06:01:00;;;;;;;7.80;4.60;;;18.90;75.00;;;;;;5091992;28;20518;-61
2021/05/03 06:03:26;;;;;;;6.73;4.57;;;19.40;71.80;;;;;;5092170;28;20201;-61
2021/05/03 06:05:52;;;;;;;6.37;4.90;;;19.30;71.60;;;;;;5092585;28;20215;-62
2021/05/03 06:08:18;;;;;;;6.93;5.53;;;19.20;71.50;;;;;;5092292;28;20203;-63
2021/05/03 06:10:46;;;;;;;6.03;5.30;;;18.80;70.90;;;;;;5093102;28;20314;-62
2021/05/03 06:13:13;;;;;;;10.10;6.63;;;17.80;72.60;;;;;;5092330;28;20209;-62
2021/05/03 06:15:39;;;;;;;6.60;5.80;;;16.90;75.50;;;;;;5091965;28;20208;-62
2021/05/03 06:18:06;;;;;;;8.60;6.07;;;16.80;75.70;;;;;;5091911;28;20200;-62
2021/05/03 06:20:34;;;;;;;9.77;5.80;;;16.80;76.80;;;;;;5091591;28;20243;-63
2021/05/03 06:23:00;;;;;;;7.53;5.77;;;17.80;75.10;;;;;;5091869;28;20210;-62
2021/05/03 06:25:26;;;;;;;7.27;5.60;;;19.20;71.90;;;;;;5091715;28;20212;-63
2021/05/03 06:27:52;;;;;;;6.63;4.97;;;20.70;67.70;;;;;;5091595;28;20605;-64
2021/05/03 06:30:22;;;;;;;6.88;5.35;;;22.20;64.30;;;;;;5091784;28;20235;-63
2021/05/03 06:32:48;;;;;;;7.80;5.35;;;23.50;59.80;;;;;;5091823;28;20205;-62
2021/05/03 06:35:14;;;;;;;5.65;4.97;;;23.80;56.80;;;;;;5091529;28;20204;-62
2021/05/03 06:37:40;;;;;;;6.15;5.00;;;23.00;57.80;;;;;;5091632;28;20204;-65
2021/05/03 06:40:08;;;;;;;5.88;5.22;;;22.90;57.40;;;;;;5091576;28;20703;-64
2021/05/03 06:42:34;;;;;;;5.32;4.78;;;23.30;56.70;;;;;;5091365;28;20671;-62
2021/05/03 06:45:01;;;;;;;6.05;4.65;;;23.90;54.70;;;;;;5091523;28;20204;-62
2021/05/03 06:47:28;;;;;;;5.97;4.70;;;25.00;52.70;;;;;;5091520;28;20200;-63
2021/05/03 06:49:54;;;;;;;7.25;5.20;;;26.00;50.40;;;;;;5091201;28;20223;-62
2021/05/03 06:52:20;;;;;;;8.05;5.20;;;26.30;49.20;;;;;;5092037;28;20200;-62
2021/05/03 06:54:47;;;;;;;6.22;4.95;;;24.80;50.70;;;;;;5091652;28;20226;-62
2021/05/03 06:57:13;;;;;;;9.23;5.20;;;23.30;53.10;;;;;;5091076;28;20266;-64
2021/05/03 06:59:39;;;;;;;6.72;4.80;;;23.50;52.90;;;;;;5091398;28;20216;-62
2021/05/03 07:02:05;;;;;;;8.30;5.15;;;23.90;52.10;;;;;;5091206;28;20228;-63
2021/05/03 07:04:33;;;;;;;5.28;4.40;;;24.00;52.00;;;;;;5091109;28;20248;-63
2021/05/03 07:06:59;;;;;;;5.60;4.88;;;24.80;50.80;;;;;;5091029;28;20549;-63
2021/05/03 07:09:25;;;;;;;4.03;3.72;;;25.30;48.60;;;;;;5090947;28;20204;-62
2021/05/03 07:11:52;;;;;;;4.57;3.88;;;24.40;46.50;;;;;;5090734;28;20224;-62
2021/05/03 07:14:19;;;;;;;4.60;4.20;;;23.40;47.10;;;;;;5090947;28;20560;-62
2021/05/03 07:16:45;;;;;;;5.28;4.50;;;22.30;48.40;;;;;;5090305;28;20432;-62
2021/05/03 07:19:11;;;;;;;5.05;4.00;;;22.20;49.70;;;;;;5091038;28;20231;-62
2021/05/03 07:21:38;;;;;;;7.38;4.10;;;23.50;48.60;;;;;;5090976;28;20232;-62
2021/05/03 07:24:05;;;;;;;6.10;4.10;;;24.80;46.40;;;;;;5090857;28;20200;-63
2021/05/03 07:26:33;;;;;;;5.93;4.43;;;25.30;45.00;;;;;;5091125;28;20204;-63
2021/05/03 07:28:59;;;;;;;6.03;4.50;;;26.10;44.40;;;;;;5091141;28;20270;-64
2021/05/03 07:31:26;;;;;;;6.38;4.15;;;27.20;43.40;;;;;;5091311;28;20232;-63
2021/05/03 07:33:52;;;;;;;6.22;4.03;;;28.20;40.90;;;;;;5090981;28;20208;-64
2021/05/03 07:36:19;;;;;;;4.35;3.95;;;28.50;40.20;;;;;;5090952;28;20504;-64
2021/05/03 07:38:46;;;;;;;5.35;4.03;;;29.00;39.20;;;;;;5090796;28;20741;-64
2021/05/03 07:41:12;;;;;;;5.28;3.72;;;29.20;39.10;;;;;;5091450;28;20643;-63
2021/05/03 07:43:39;;;;;;;6.13;4.60;;;29.80;38.10;;;;;;5090869;28;20205;-63
2021/05/03 07:46:05;;;;;;;4.85;4.32;;;30.20;37.70;;;;;;5091002;28;20590;-63
2021/05/03 07:48:31;;;;;;;4.35;3.90;;;30.60;37.10;;;;;;5090836;28;20668;-63
2021/05/03 07:50:58;;;;;;;4.55;4.13;;;30.90;36.50;;;;;;5090687;28;20220;-63
2021/05/03 07:53:24;;;;;;;4.85;4.22;;;31.10;35.50;;;;;;5090710;28;20254;-63
2021/05/03 07:55:51;;;;;;;4.30;3.90;;;31.20;35.60;;;;;;5091274;28;20321;-67
2021/05/03 07:58:17;;;;;;;5.53;4.28;;;31.50;35.00;;;;;;5091583;28;20270;-63
2021/05/03 08:00:43;;;;;;;5.63;4.32;;;31.50;34.60;;;;;;5091151;28;20274;-65
2021/05/03 08:03:09;;;;;;;5.20;4.18;;;30.90;35.80;;;;;;5091238;28;20208;-63
2021/05/03 08:05:35;;;;;;;15.75;4.85;;;31.00;35.50;;;;;;5090884;28;20205;-63
2021/05/03 08:08:03;;;;;;;16.08;5.07;;;31.60;34.70;;;;;;5090626;28;20209;-63
2021/05/03 08:10:30;;;;;;;4.90;4.28;;;31.50;34.40;;;;;;5090568;28;20747;-64
2021/05/03 08:12:57;;;;;;;9.27;4.45;;;31.90;33.70;;;;;;5091022;28;20215;-62
2021/05/03 08:15:24;;;;;;;4.47;4.07;;;31.70;34.20;;;;;;5090780;28;20209;-64
2021/05/03 08:17:50;;;;;;;5.45;4.32;;;31.00;34.00;;;;;;5093252;28;20291;-63
2021/05/03 08:20:18;;;;;;;5.97;4.43;;;30.40;34.70;;;;;;5094131;28;20286;-64
2021/05/03 08:22:44;;;;;;;5.68;4.15;;;30.50;34.60;;;;;;5094335;28;20294;-63
2021/05/03 08:25:12;;;;;;;6.70;4.28;;;30.30;34.70;;;;;;5094360;28;20204;-64
2021/05/03 08:27:38;;;;;;;4.97;4.57;;;30.20;35.30;;;;;;5094516;28;20200;-64
2021/05/03 08:30:08;;;;;;;5.20;4.70;;;29.70;35.60;;;;;;5094323;28;20215;-62
2021/05/03 08:32:35;;;;;;;5.65;5.00;;;28.40;36.70;;;;;;5094086;28;20211;-64
2021/05/03 08:35:01;;;;;;;6.18;5.40;;;26.70;38.20;;;;;;5093719;28;20212;-64
2021/05/03 08:37:28;;;;;;;5.32;4.75;;;25.00;40.80;;;;;;5094129;28;20212;-63
2021/05/03 08:39:54;;;;;;;6.78;4.78;;;23.50;42.30;;;;;;5094227;28;20240;-63
2021/05/03 08:42:20;;;;;;;5.55;4.75;;;22.20;43.60;;;;;;5094318;28;20212;-64
2021/05/03 08:44:48;;;;;;;6.25;4.88;;;21.40;45.20;;;;;;5093817;28;20621;-63
2021/05/03 08:47:15;;;;;;;5.35;4.85;;;21.00;45.50;;;;;;5093989;28;20210;-62
2021/05/03 08:49:54;;;;;;;7.88;5.30;;;20.20;45.50;;;;;;5094274;28;20204;-63
2021/05/03 08:52:23;;;;;;;5.68;5.10;;;19.10;47.90;;;;;;5094177;28;20250;-63
2021/05/03 08:54:51;;;;;;;5.17;4.67;;;18.50;49.70;;;;;;5094120;28;20215;-64
2021/05/03 08:57:17;;;;;;;20.33;12.60;;;18.30;50.40;;;;;;5094548;28;20200;-65
2021/05/03 08:59:44;;;;;;;4.93;4.43;;;18.30;50.10;;;;;;5094740;28;20211;-63
2021/05/03 09:02:13;;;;;;;8.70;5.40;;;18.50;49.40;;;;;;5095709;28;20235;-64
2021/05/03 09:04:40;;;;;;;6.03;4.93;;;18.80;49.70;;;;;;5093643;28;20239;-65
2021/05/03 09:07:12;;;;;;;8.25;5.57;;;19.00;48.80;;;;;;5093387;28;20211;-65
2021/05/03 09:09:39;;;;;;;8.10;5.60;;;19.10;49.40;;;;;;5092967;28;20204;-63
2021/05/03 09:12:07;;;;;;;6.45;5.00;;;19.10;50.10;;;;;;5093013;28;20232;-65
2021/05/03 09:14:44;;;;;;;6.90;5.30;;;19.20;49.20;;;;;;5092639;28;20224;-64
2021/05/03 09:17:21;;;;;;;6.07;5.35;;;19.50;49.00;;;;;;5093228;28;20208;-64
2021/05/03 09:19:49;;;;;;;7.10;5.20;;;19.70;48.80;;;;;;5093535;28;20246;-65
2021/05/03 09:22:25;;;;;;;5.57;4.82;;;19.60;47.90;;;;;;5094027;28;20216;-65
2021/05/03 09:24:51;;;;;;;6.10;5.10;;;19.40;48.30;;;;;;5093721;28;20506;-64
2021/05/03 09:27:20;;;;;;;6.50;5.35;;;19.20;47.80;;;;;;5093160;28;20265;-65
2021/05/03 09:29:48;;;;;;;6.07;4.88;;;18.90;48.50;;;;;;5092166;28;20211;-65
2021/05/03 09:32:16;;;;;;;8.13;4.80;;;18.80;49.10;;;;;;5093005;28;20231;-66
2021/05/03 09:34:45;;;;;;;6.57;4.63;;;18.90;48.80;;;;;;5092530;28;20236;-64
2021/05/03 09:37:25;;;;;;;5.50;4.82;;;19.20;48.00;;;;;;5092618;28;20224;-64
2021/05/03 09:40:00;;;;;;;7.47;4.88;;;19.40;47.20;;;;;;5092054;28;20282;-64
2021/05/03 09:42:46;;;;;;;5.00;4.50;;;19.80;46.50;;;;;;5091862;28;20734;-64
2021/05/03 09:45:14;;;;;;;5.97;4.90;;;20.10;46.30;;;;;;5092192;28;20612;-64
2021/05/03 09:47:42;;;;;;;6.82;5.18;;;20.30;46.90;;;;;;5095424;28;20200;-64
2021/05/03 09:50:10;;;;;;;7.70;6.22;;;20.30;46.80;;;;;;5094143;28;20246;-61
2021/05/03 09:52:38;;;;;;;6.90;4.90;;;20.10;47.40;;;;;;5093202;28;20206;-63
2021/05/03 09:55:32;;;;;;;4.85;4.40;;;20.20;46.50;;;;;;5092797;28;20200;-62
2021/05/03 09:58:13;;;;;;;4.55;4.15;;;20.30;45.90;;;;;;5093271;28;21013;-63
2021/05/03 10:00:41;;;;;;;4.72;4.30;;;20.50;45.90;;;;;;5092682;28;20224;-64
2021/05/03 10:03:38;;;;;;;6.30;4.60;;;20.60;44.90;;;;;;5092849;28;20245;-63
2021/05/03 10:06:07;;;;;;;5.40;4.20;;;20.90;44.50;;;;;;5092580;28;20249;-63
2021/05/03 10:08:34;;;;;;;5.10;4.10;;;20.90;44.70;;;;;;5092491;28;20212;-64
2021/05/03 10:11:04;;;;;;;7.40;4.85;;;21.10;44.30;;;;;;5092015;28;20224;-64
2021/05/03 10:13:32;;;;;;;6.22;4.05;;;20.90;44.10;;;;;;5092260;28;20208;-65
2021/05/03 10:16:00;;;;;;;5.13;4.65;;;20.70;44.50;;;;;;5092418;28;20207;-65
2021/05/03 10:18:27;;;;;;;6.72;3.83;;;20.20;44.20;;;;;;5092616;28;20242;-64
2021/05/03 10:20:55;;;;;;;4.50;4.10;;;19.50;45.30;;;;;;5092055;28;20242;-65
2021/05/03 10:23:23;;;;;;;6.63;4.20;;;19.10;45.80;;;;;;5092547;28;20200;-65
2021/05/03 10:25:55;;;;;;;5.28;4.22;;;18.90;47.30;;;;;;5092651;28;20208;-65
2021/05/03 10:28:22;;;;;;;5.20;3.80;;;18.80;48.00;;;;;;5089758;28;20207;-62
2021/05/03 10:30:49;;;;;;;4.97;4.13;;;18.70;47.60;;;;;;5091308;28;20688;-63
2021/05/03 10:33:16;;;;;;;4.43;4.03;;;18.40;47.10;;;;;;5091333;28;20343;-64
2021/05/03 10:35:44;;;;;;;4.10;3.70;;;18.10;48.30;;;;;;5091316;28;20215;-63
2021/05/03 10:38:30;;;;;;;5.73;4.33;;;17.90;48.50;;;;;;5091093;28;20231;-64
2021/05/03 10:40:58;;;;;;;3.90;3.50;;;17.90;48.50;;;;;;5091646;28;20224;-64
2021/05/03 10:43:28;;;;;;;4.40;3.37;;;18.00;47.90;;;;;;5091791;28;20222;-64
2021/05/03 10:46:08;;;;;;;4.40;3.37;;;18.20;47.40;;;;;;5091968;28;20269;-63
2021/05/03 10:48:40;;;;;;;3.90;3.17;;;18.30;45.70;;;;;;5091766;28;20210;-63
2021/05/03 10:51:10;;;;;;;3.73;3.20;;;18.20;45.10;;;;;;5091563;28;20232;-62
2021/05/03 10:53:39;;;;;;;4.53;3.30;;;18.20;45.00;;;;;;5091954;28;20291;-65
2021/05/03 10:56:08;;;;;;;4.53;3.03;;;18.30;46.30;;;;;;5092480;28;20299;-63
2021/05/03 10:59:08;;;;;;;3.43;2.83;;;18.60;44.00;;;;;;5092081;28;20203;-64
2021/05/03 11:02:07;;;;;;;4.30;3.40;;;19.10;44.40;;;;;;5092024;28;20224;-63
2021/05/03 11:04:36;;;;;;;3.27;2.97;;;19.60;43.80;;;;;;5091617;28;20237;-63
2021/05/03 11:07:10;;;;;;;4.93;3.33;;;19.80;43.10;;;;;;5091131;28;20200;-63
2021/05/03 11:09:41;;;;;;;4.38;3.40;;;19.70;43.20;;;;;;5091543;28;20298;-64
2021/05/03 11:12:31;;;;;;;7.03;2.90;;;19.60;42.60;;;;;;5091016;28;20665;-64
2021/05/03 11:15:21;;;;;;;4.00;2.70;;;19.70;42.10;;;;;;5091054;28;20709;-64
2021/05/03 11:18:22;;;;;;;3.22;2.92;;;19.90;42.40;;;;;;5091404;28;20204;-64
2021/05/03 11:21:13;;;;;;;6.30;3.10;;;20.30;42.00;;;;;;5091093;28;20232;-62
2021/05/03 11:23:40;;;;;;;3.42;2.63;;;20.50;42.80;;;;;;5091481;28;20204;-63
2021/05/03 11:26:23;;;;;;;7.75;5.93;;;20.50;40.80;;;;;;5091458;28;20211;-64
2021/05/03 11:28:50;;;;;;;4.75;3.25;;;20.50;41.00;;;;;;5091446;28;20231;-63
2021/05/03 11:31:20;;;;;;;3.10;2.83;;;20.40;41.60;;;;;;5091749;28;20702;-63
2021/05/03 11:33:52;;;;;;;4.20;3.55;;;20.30;42.60;;;;;;5091638;28;20800;-64
2021/05/03 11:36:23;;;;;;;3.72;3.00;;;20.30;42.60;;;;;;5091481;28;20211;-64
2021/05/03 11:38:57;;;;;;;4.88;3.28;;;20.50;41.60;;;;;;5091293;28;20250;-63
2021/05/03 11:44:20;;;;;;;3.38;2.85;;;20.40;40.70;;;;;;5089920;28;20238;-64
2021/05/03 11:46:46;;;;;;;4.57;3.00;;;20.00;40.90;;;;;;5091181;28;20204;-64
2021/05/03 11:49:18;;;;;;;3.33;2.65;;;19.50;41.90;;;;;;5091245;28;20204;-64
2021/05/03 11:51:46;;;;;;;2.87;2.50;;;19.20;41.70;;;;;;5092004;28;20255;-63
2021/05/03 11:54:26;;;;;;;4.63;2.90;;;18.80;41.60;;;;;;5094906;28;20208;-65
2021/05/03 11:57:01;;;;;;;3.20;2.63;;;18.40;42.60;;;;;;5094693;28;20208;-64
2021/05/03 11:59:28;;;;;;;4.00;2.60;;;18.20;43.10;;;;;;5094356;28;20208;-64
2021/05/03 12:01:59;;;;;;;2.77;2.47;;;18.30;43.10;;;;;;5094668;28;20216;-64
2021/05/03 12:04:33;;;;;;;4.50;2.70;;;18.30;42.80;;;;;;5094520;28;20208;-64
2021/05/03 12:07:00;;;;;;;3.93;2.40;;;18.40;42.80;;;;;;5094845;28;20201;-64
2021/05/03 12:09:26;;;;;;;3.43;2.70;;;18.80;42.30;;;;;;5094327;28;20211;-64
2021/05/03 12:11:56;;;;;;;4.03;2.80;;;19.40;41.80;;;;;;5094498;28;20236;-65
2021/05/03 12:14:40;;;;;;;2.97;2.50;;;20.00;42.10;;;;;;5094570;28;20208;-63
2021/05/03 12:17:15;;;;;;;6.22;3.10;;;20.40;40.70;;;;;;5094380;28;20577;-64
2021/05/03 12:19:42;;;;;;;3.60;2.13;;;20.40;40.10;;;;;;5094999;28;20207;-64
2021/05/03 12:22:08;;;;;;;4.68;2.70;;;20.30;39.50;;;;;;5094265;28;20251;-64
2021/05/03 12:24:39;;;;;;;2.80;2.60;;;20.30;39.80;;;;;;5094461;28;20208;-64
2021/05/03 12:27:05;;;;;;;2.70;2.50;;;20.30;40.30;;;;;;5094609;28;20253;-64
2021/05/03 12:29:33;;;;;;;3.30;2.63;;;20.00;39.80;;;;;;5094436;28;20211;-63
2021/05/03 12:32:00;;;;;;;4.27;2.43;;;19.80;39.70;;;;;;5094086;28;20239;-64
2021/05/03 12:34:27;;;;;;;6.07;2.33;;;19.90;40.50;;;;;;5094458;28;20266;-64
2021/05/03 12:37:13;;;;;;;3.87;2.73;;;20.00;40.80;;;;;;5094022;28;20585;-65
2021/05/03 12:39:54;;;;;;;3.50;3.20;;;19.90;41.40;;;;;;5093894;28;20534;-64
2021/05/03 12:42:20;;;;;;;3.60;2.60;;;19.70;42.10;;;;;;5093760;28;20200;-65
2021/05/03 12:44:50;;;;;;;5.17;2.63;;;19.50;41.10;;;;;;5094598;28;20204;-65
2021/05/03 12:47:36;;;;;;;3.40;2.42;;;19.50;41.60;;;;;;5094551;28;20676;-65
2021/05/03 12:50:09;;;;;;;3.30;2.57;;;19.40;41.90;;;;;;5094580;28;20203;-65
2021/05/03 12:52:40;;;;;;;3.25;2.55;;;19.40;40.80;;;;;;5094293;28;20224;-63
2021/05/03 12:55:13;;;;;;;3.33;2.80;;;19.30;41.80;;;;;;5094674;28;20269;-64
2021/05/03 12:57:53;;;;;;;4.00;2.90;;;19.20;42.30;;;;;;5094561;28;20333;-63
2021/05/03 13:00:23;;;;;;;2.70;2.40;;;19.30;41.70;;;;;;5094088;28;20223;-64
2021/05/03 13:03:11;;;;;;;2.80;2.10;;;19.40;40.60;;;;;;5093986;28;20200;-65
2021/05/03 13:05:41;;;;;;;5.93;2.60;;;19.40;40.70;;;;;;5093741;28;20215;-64
2021/05/03 13:08:26;;;;;;;2.90;2.60;;;19.40;40.70;;;;;;5093687;28;20208;-65
2021/05/03 13:22:53;;;;;;;4.50;2.58;;;19.10;41.60;;;;;;5093418;28;20381;-64
2021/05/03 13:25:34;;;;;;;3.08;2.53;;;19.30;41.00;;;;;;5093855;28;20485;-65